Time;durP1;ratioP1;P1;durP2;ratioP2;P2;SDS_P1;SDS_P2;PMS_P1;PMS_P2;Temp;Humidity;BMP_temperature;BMP_pressure;BME280_temperature;BME280_humidity;BME280_pressure;Samples;Min_cycle;Max_cycle;Signal;HPM_P1;HPM_P2
2021/11/26 00:02:33;;;;;;;25.60;17.03;;;4.90;44.70;;;;;;10502910;28;20257;-71
2021/11/26 00:07:38;;;;;;;24.63;16.63;;;4.80;44.70;;;;;;10507663;28;20232;-71
2021/11/26 00:12:52;;;;;;;27.27;17.83;;;4.80;45.00;;;;;;10502688;28;20857;-71
2021/11/26 00:17:57;;;;;;;26.80;16.70;;;4.80;45.00;;;;;;10500128;28;20675;-74
2021/11/26 00:23:01;;;;;;;28.33;17.23;;;4.80;45.10;;;;;;10498235;28;20323;-74
2021/11/26 00:28:05;;;;;;;30.10;18.07;;;4.80;45.20;;;;;;10509848;28;20331;-74
2021/11/26 00:33:08;;;;;;;26.27;16.87;;;4.90;45.30;;;;;;10508371;28;20725;-74
2021/11/26 00:38:13;;;;;;;30.27;17.77;;;4.90;45.30;;;;;;10500461;28;20223;-69
2021/11/26 00:43:16;;;;;;;27.40;16.97;;;4.90;45.10;;;;;;10502768;28;20725;-69
2021/11/26 00:48:19;;;;;;;28.60;17.67;;;4.90;45.10;;;;;;10502678;28;20314;-69
2021/11/26 00:53:24;;;;;;;27.40;16.63;;;4.90;45.00;;;;;;10509687;28;20232;-69
2021/11/26 00:58:27;;;;;;;32.40;16.83;;;4.90;45.10;;;;;;10514063;28;20231;-71
2021/11/26 01:03:30;;;;;;;30.00;16.70;;;4.90;45.00;;;;;;10513399;28;20574;-75
2021/11/26 01:08:35;;;;;;;28.83;17.30;;;4.90;45.00;;;;;;10513285;28;20224;-69
2021/11/26 01:13:38;;;;;;;25.43;16.13;;;4.90;45.00;;;;;;10510492;28;20236;-74
2021/11/26 01:18:42;;;;;;;25.67;15.10;;;4.90;45.00;;;;;;10509759;28;20614;-74
2021/11/26 01:23:46;;;;;;;24.27;15.23;;;4.90;45.20;;;;;;10512364;28;20219;-74
2021/11/26 01:28:50;;;;;;;25.83;15.43;;;4.90;45.30;;;;;;10507669;28;20224;-74
2021/11/26 01:33:54;;;;;;;22.63;15.23;;;4.90;45.40;;;;;;10512397;28;20224;-74
2021/11/26 01:38:59;;;;;;;22.37;14.60;;;4.90;45.40;;;;;;10509509;28;20719;-74
2021/11/26 01:44:02;;;;;;;20.80;13.30;;;4.90;45.40;;;;;;10507521;28;20243;-73
2021/11/26 01:49:05;;;;;;;25.73;14.87;;;5.00;45.40;;;;;;10510762;28;20223;-74
2021/11/26 01:54:10;;;;;;;21.40;14.47;;;5.00;46.10;;;;;;10505649;28;20249;-74
2021/11/26 01:59:13;;;;;;;24.50;15.97;;;5.10;45.40;;;;;;10513100;28;20235;-74
2021/11/26 02:04:17;;;;;;;26.10;15.33;;;5.10;45.40;;;;;;10508932;28;20223;-74
2021/11/26 02:09:21;;;;;;;24.97;15.20;;;5.10;45.30;;;;;;10505652;28;20592;-74
2021/11/26 02:14:25;;;;;;;24.33;15.17;;;5.20;46.10;;;;;;10512627;28;20606;-74
2021/11/26 02:19:28;;;;;;;23.70;15.20;;;5.10;46.00;;;;;;10512605;28;20227;-74
2021/11/26 02:24:33;;;;;;;24.57;15.23;;;5.20;45.30;;;;;;10509357;28;20271;-74
2021/11/26 02:29:36;;;;;;;26.10;15.63;;;5.20;45.30;;;;;;10502786;28;20226;-74
2021/11/26 02:34:40;;;;;;;24.73;15.40;;;5.20;45.80;;;;;;10507450;28;20235;-74
2021/11/26 02:39:44;;;;;;;26.30;14.93;;;5.20;45.20;;;;;;10511476;28;20708;-74
2021/11/26 02:44:47;;;;;;;27.10;16.17;;;5.20;45.20;;;;;;10505543;28;20232;-74
2021/11/26 02:49:51;;;;;;;25.83;15.87;;;5.20;45.20;;;;;;10515616;28;20231;-74
2021/11/26 02:54:55;;;;;;;24.90;15.30;;;5.20;45.30;;;;;;10501820;28;20228;-74
2021/11/26 02:59:58;;;;;;;22.90;14.67;;;5.20;45.20;;;;;;10503401;28;20223;-74
2021/11/26 03:05:02;;;;;;;28.70;17.37;;;5.20;45.90;;;;;;10502990;28;20230;-72
2021/11/26 03:10:08;;;;;;;27.13;16.20;;;5.20;45.10;;;;;;10509404;28;20312;-74
2021/11/26 03:15:12;;;;;;;29.27;16.63;;;5.20;45.10;;;;;;10507252;28;20220;-74
2021/11/26 03:20:15;;;;;;;27.93;16.80;;;5.20;45.10;;;;;;10508537;28;20594;-75
2021/11/26 03:25:21;;;;;;;29.57;16.83;;;5.10;45.00;;;;;;10500777;28;20220;-74
2021/11/26 03:30:25;;;;;;;26.97;16.87;;;5.10;45.10;;;;;;10506977;28;20228;-74
2021/11/26 03:35:28;;;;;;;28.63;18.20;;;5.10;45.20;;;;;;10508301;28;20228;-74
2021/11/26 03:40:33;;;;;;;27.93;16.90;;;5.10;45.40;;;;;;10497626;28;20256;-74
2021/11/26 03:45:36;;;;;;;29.43;17.90;;;5.10;45.40;;;;;;10503475;28;20275;-74
2021/11/26 03:50:40;;;;;;;29.23;17.93;;;5.10;45.20;;;;;;10504689;28;20721;-74
2021/11/26 03:55:44;;;;;;;33.30;18.87;;;5.10;45.10;;;;;;10506837;28;20228;-74
2021/11/26 04:00:47;;;;;;;33.23;19.40;;;5.10;45.30;;;;;;10502567;28;20228;-74
2021/11/26 04:05:51;;;;;;;33.70;19.60;;;5.10;45.10;;;;;;10508803;28;20662;-74
2021/11/26 04:10:55;;;;;;;31.70;18.50;;;5.10;45.20;;;;;;10500491;28;20599;-75
2021/11/26 04:16:03;;;;;;;32.13;19.33;;;5.10;45.20;;;;;;10506754;28;20220;-74
2021/11/26 04:21:06;;;;;;;33.90;20.30;;;5.10;45.30;;;;;;10505368;28;20235;-74
2021/11/26 04:26:11;;;;;;;34.57;19.67;;;5.10;45.20;;;;;;10511907;28;20786;-74
2021/11/26 04:31:14;;;;;;;35.17;21.13;;;5.20;45.20;;;;;;10508974;28;20842;-74
2021/11/26 04:36:18;;;;;;;35.10;20.50;;;5.10;45.00;;;;;;10509024;28;20311;-75
2021/11/26 04:41:22;;;;;;;36.10;21.20;;;5.10;44.80;;;;;;10507547;28;20228;-74
2021/11/26 04:46:25;;;;;;;34.97;20.50;;;5.10;44.80;;;;;;10510582;28;20785;-75
2021/11/26 04:51:28;;;;;;;33.37;19.50;;;5.00;44.90;;;;;;10510315;28;20234;-76
2021/11/26 04:56:33;;;;;;;34.53;19.93;;;5.00;45.00;;;;;;10511779;28;20582;-70
2021/11/26 05:01:36;;;;;;;33.97;19.90;;;5.00;45.20;;;;;;10505596;28;20220;-75
2021/11/26 05:06:40;;;;;;;37.40;20.53;;;4.90;45.10;;;;;;10515200;28;20235;-75
2021/11/26 05:11:46;;;;;;;38.10;20.93;;;4.90;45.20;;;;;;10516210;28;20230;-75
2021/11/26 05:16:49;;;;;;;35.63;20.03;;;4.90;45.20;;;;;;10512546;28;20594;-75
2021/11/26 05:21:52;;;;;;;36.27;19.23;;;4.90;45.40;;;;;;10510735;28;20589;-74
2021/11/26 05:26:57;;;;;;;37.73;21.33;;;4.90;45.30;;;;;;10513903;28;20227;-75
2021/11/26 05:32:00;;;;;;;38.57;21.07;;;5.00;45.40;;;;;;10514578;28;20226;-75
2021/11/26 05:37:03;;;;;;;34.67;21.10;;;5.00;45.30;;;;;;10510698;28;20242;-74
2021/11/26 05:42:08;;;;;;;36.27;21.27;;;5.00;45.20;;;;;;10506276;28;20292;-75
2021/11/26 05:47:11;;;;;;;31.93;20.20;;;5.00;45.30;;;;;;10504150;28;20341;-75
2021/11/26 05:52:15;;;;;;;32.80;18.90;;;5.00;45.20;;;;;;10480946;23;20316;-75
2021/11/26 05:57:20;;;;;;;37.30;21.27;;;5.00;45.20;;;;;;10430359;28;20221;-75
2021/11/26 06:02:23;;;;;;;34.93;19.83;;;5.00;45.30;;;;;;10425901;28;20252;-75
2021/11/26 06:07:26;;;;;;;39.40;22.07;;;5.00;45.20;;;;;;10419140;28;20233;-75
2021/11/26 06:12:31;;;;;;;37.07;21.33;;;5.00;45.10;;;;;;10421010;28;20252;-76
2021/11/26 06:17:34;;;;;;;40.00;21.77;;;5.00;45.20;;;;;;10420229;28;20237;-75
2021/11/26 06:22:39;;;;;;;39.47;22.10;;;5.00;45.30;;;;;;10414854;28;20534;-76
2021/11/26 06:27:45;;;;;;;36.37;21.30;;;5.00;45.40;;;;;;10421766;28;20599;-76
2021/11/26 06:32:49;;;;;;;35.00;20.27;;;4.90;45.50;;;;;;10421138;28;20225;-76
2021/11/26 06:37:53;;;;;;;35.60;21.13;;;4.90;45.50;;;;;;10432284;28;20796;-76
2021/11/26 06:42:58;;;;;;;32.27;18.27;;;5.00;45.60;;;;;;10420251;28;20605;-76
2021/11/26 06:48:01;;;;;;;34.90;20.50;;;5.00;45.70;;;;;;10421401;28;20228;-76
2021/11/26 06:53:04;;;;;;;36.23;19.97;;;5.00;45.70;;;;;;10424162;28;20245;-75
2021/11/26 06:58:09;;;;;;;34.17;20.00;;;5.10;45.60;;;;;;10426762;28;21126;-75
2021/11/26 07:03:12;;;;;;;37.87;21.33;;;5.10;45.60;;;;;;10421425;28;20231;-75
2021/11/26 07:08:18;;;;;;;37.60;21.43;;;5.10;45.40;;;;;;10421965;28;20756;-76
2021/11/26 07:13:22;;;;;;;41.47;22.73;;;5.10;45.30;;;;;;10424052;28;20231;-76
2021/11/26 07:18:25;;;;;;;39.03;20.97;;;5.10;45.20;;;;;;10427356;28;20229;-76
2021/11/26 07:23:28;;;;;;;42.67;22.23;;;5.10;45.40;;;;;;10420529;28;20225;-76
2021/11/26 07:28:33;;;;;;;37.97;22.20;;;5.00;45.50;;;;;;10424968;28;20582;-76
2021/11/26 07:33:36;;;;;;;37.73;20.70;;;5.00;45.50;;;;;;10423493;28;20228;-76
2021/11/26 07:38:40;;;;;;;37.20;22.20;;;5.00;45.40;;;;;;10422839;28;20710;-76
2021/11/26 07:43:44;;;;;;;36.60;21.43;;;5.00;45.50;;;;;;10421789;28;20602;-76
2021/11/26 07:48:47;;;;;;;35.97;20.43;;;5.00;45.60;;;;;;10424689;28;20225;-76
2021/11/26 07:53:51;;;;;;;35.73;20.87;;;5.00;45.70;;;;;;10421760;28;20598;-76
2021/11/26 07:58:55;;;;;;;32.83;19.60;;;5.10;45.80;;;;;;10425999;28;20225;-76
2021/11/26 08:03:58;;;;;;;36.77;20.10;;;5.10;45.80;;;;;;10425668;28;20281;-76
2021/11/26 08:09:02;;;;;;;33.63;18.60;;;5.20;45.80;;;;;;10426980;28;20597;-76
2021/11/26 08:14:06;;;;;;;37.37;21.57;;;5.20;45.70;;;;;;10427547;28;20234;-76
2021/11/26 08:19:10;;;;;;;33.73;20.83;;;5.30;45.70;;;;;;10422185;28;20225;-76
2021/11/26 08:24:15;;;;;;;34.60;20.40;;;5.30;45.60;;;;;;10425268;28;20228;-76
2021/11/26 08:29:19;;;;;;;32.37;20.27;;;5.30;45.40;;;;;;10432011;28;20236;-76
2021/11/26 08:34:23;;;;;;;39.90;23.33;;;5.30;45.50;;;;;;10426719;28;20236;-76
2021/11/26 08:39:26;;;;;;;41.63;22.53;;;5.40;45.40;;;;;;10424728;28;20222;-75
2021/11/26 08:44:32;;;;;;;41.23;22.87;;;5.30;45.30;;;;;;10434152;28;20243;-74
2021/11/26 08:49:35;;;;;;;49.53;27.00;;;5.30;46.60;;;;;;10426659;28;20705;-74
2021/11/26 08:54:39;;;;;;;49.33;25.57;;;5.40;46.30;;;;;;10433554;28;20224;-74
2021/11/26 08:59:43;;;;;;;51.33;25.17;;;5.40;45.80;;;;;;10429739;28;20221;-75
2021/11/26 09:04:46;;;;;;;52.23;26.23;;;5.40;45.60;;;;;;10431079;28;20217;-75
2021/11/26 09:09:50;;;;;;;39.80;20.43;;;5.30;45.50;;;;;;10417018;28;20230;-72
2021/11/26 09:14:54;;;;;;;39.97;22.80;;;5.40;47.20;;;;;;10424915;28;20598;-74
2021/11/26 09:19:58;;;;;;;37.37;21.27;;;5.40;46.80;;;;;;10416997;28;20246;-74
2021/11/26 09:25:01;;;;;;;37.40;21.00;;;5.50;46.10;;;;;;10418992;28;20594;-75
2021/11/26 09:30:07;;;;;;;36.57;21.13;;;5.50;46.10;;;;;;10425665;28;20225;-74
2021/11/26 09:35:11;;;;;;;34.63;19.97;;;5.50;45.60;;;;;;10424121;28;20571;-74
2021/11/26 09:40:15;;;;;;;31.27;19.00;;;5.50;45.50;;;;;;10428020;28;20603;-74
2021/11/26 09:45:22;;;;;;;30.67;17.83;;;5.40;45.40;;;;;;10426128;28;20283;-74
2021/11/26 09:50:28;;;;;;;29.50;17.87;;;5.40;45.40;;;;;;10422939;28;20229;-74
2021/11/26 09:55:31;;;;;;;30.63;18.77;;;5.40;45.40;;;;;;10427351;28;20222;-74
2021/11/26 10:00:36;;;;;;;30.33;19.40;;;5.50;45.60;;;;;;10419115;28;20233;-74
2021/11/26 10:05:40;;;;;;;30.30;19.10;;;5.40;45.80;;;;;;10424960;28;20214;-74
2021/11/26 10:10:43;;;;;;;29.50;18.50;;;5.30;45.40;;;;;;10420537;28;20731;-74
2021/11/26 10:15:51;;;;;;;27.57;17.83;;;5.40;45.80;;;;;;10423021;28;20286;-74
2021/11/26 10:21:02;;;;;;;29.60;17.83;;;5.40;46.10;;;;;;10420139;28;20340;-74
2021/11/26 10:26:14;;;;;;;27.50;18.30;;;5.50;46.80;;;;;;10423222;28;20352;-74
2021/11/26 10:31:28;;;;;;;27.17;17.77;;;5.50;45.90;;;;;;10424230;28;20276;-74
2021/11/26 10:36:43;;;;;;;28.90;18.77;;;5.60;45.90;;;;;;10415764;28;20224;-74
2021/11/26 10:41:51;;;;;;;27.47;16.40;;;5.60;45.50;;;;;;10420960;28;20603;-74
2021/11/26 10:47:10;;;;;;;28.37;17.87;;;5.60;45.50;;;;;;10421996;28;20229;-74
2021/11/26 10:52:34;;;;;;;27.30;17.37;;;5.60;45.50;;;;;;10414908;28;20224;-74
2021/11/26 10:57:59;;;;;;;28.07;17.57;;;5.50;45.50;;;;;;10419075;28;20237;-75
2021/11/26 11:03:04;;;;;;;29.70;17.67;;;5.50;45.50;;;;;;10420378;28;20595;-74
2021/11/26 11:08:20;;;;;;;29.80;19.67;;;5.50;45.50;;;;;;10421078;28;20228;-74
2021/11/26 11:13:28;;;;;;;31.50;19.23;;;5.50;45.40;;;;;;10421861;28;20316;-75
2021/11/26 11:18:33;;;;;;;28.33;17.80;;;5.50;45.40;;;;;;10421058;28;20266;-75
2021/11/26 11:23:36;;;;;;;30.53;19.37;;;5.50;45.80;;;;;;10416479;28;20232;-76
2021/11/26 11:28:39;;;;;;;30.77;19.87;;;5.50;45.70;;;;;;10423206;28;20232;-76
2021/11/26 11:33:44;;;;;;;28.97;19.00;;;5.50;45.60;;;;;;10417325;28;20593;-76
2021/11/26 11:38:57;;;;;;;28.80;19.30;;;5.50;45.70;;;;;;10423675;28;20236;-76
2021/11/26 11:44:01;;;;;;;29.30;19.03;;;5.50;45.70;;;;;;10420171;28;20222;-76
2021/11/26 11:49:06;;;;;;;30.60;18.53;;;5.50;45.50;;;;;;10419890;28;20232;-75
2021/11/26 11:54:13;;;;;;;27.57;16.90;;;5.50;45.70;;;;;;10422349;28;20247;-75
2021/11/26 11:59:30;;;;;;;25.17;17.47;;;5.50;45.90;;;;;;10423267;28;20312;-75
2021/11/26 12:04:41;;;;;;;26.50;16.83;;;5.50;45.70;;;;;;10420448;28;20589;-76
2021/11/26 12:09:44;;;;;;;26.93;17.70;;;5.60;45.90;;;;;;10422494;28;20233;-75
2021/11/26 12:14:50;;;;;;;27.37;17.43;;;5.50;45.50;;;;;;10421232;28;20228;-75
2021/11/26 12:20:02;;;;;;;26.47;17.23;;;5.60;45.60;;;;;;10419818;28;20236;-76
2021/11/26 12:25:20;;;;;;;28.67;17.30;;;5.60;45.70;;;;;;10417207;28;20251;-76
2021/11/26 12:30:23;;;;;;;27.03;18.37;;;5.60;45.60;;;;;;10412727;28;20607;-76
2021/11/26 12:35:28;;;;;;;24.20;16.33;;;5.70;45.80;;;;;;10413025;28;20314;-76
2021/11/26 12:40:31;;;;;;;24.67;16.67;;;5.70;45.60;;;;;;10413439;28;20320;-76
2021/11/26 12:45:36;;;;;;;24.50;15.77;;;5.70;45.70;;;;;;10418664;28;20241;-76
2021/11/26 12:56:04;;;;;;;25.37;16.73;;;5.70;45.70;;;;;;10425449;28;20224;-76
2021/11/26 13:01:10;;;;;;;27.00;16.30;;;5.70;45.70;;;;;;10423252;28;20287;-76
2021/11/26 13:06:21;;;;;;;25.20;16.10;;;5.80;45.60;;;;;;10424555;28;20249;-76
2021/11/26 13:11:24;;;;;;;25.67;15.77;;;5.80;45.60;;;;;;10422929;28;20253;-76
2021/11/26 13:16:27;;;;;;;25.33;14.93;;;5.80;45.50;;;;;;10423373;28;20225;-76
2021/11/26 13:21:46;;;;;;;23.40;15.27;;;5.80;45.50;;;;;;10429091;28;20224;-76
2021/11/26 13:26:49;;;;;;;23.10;14.53;;;5.90;45.60;;;;;;10425522;28;20752;-76
2021/11/26 13:31:56;;;;;;;22.03;14.43;;;5.80;45.60;;;;;;10429060;28;20229;-76
2021/11/26 13:37:09;;;;;;;19.97;13.50;;;5.80;45.60;;;;;;10421792;28;20217;-76
2021/11/26 13:42:13;;;;;;;21.60;14.63;;;5.90;45.50;;;;;;10505294;28;20247;-75
2021/11/26 13:47:20;;;;;;;23.43;14.33;;;5.90;45.40;;;;;;10512355;28;20686;-76
2021/11/26 13:52:26;;;;;;;21.57;13.60;;;5.90;45.40;;;;;;10509487;28;20242;-75
2021/11/26 13:57:49;;;;;;;22.17;14.20;;;5.90;45.50;;;;;;10511283;28;20277;-76
2021/11/26 14:02:57;;;;;;;22.20;14.03;;;5.90;45.40;;;;;;10510499;28;20223;-72
2021/11/26 14:08:04;;;;;;;22.60;15.27;;;6.00;45.50;;;;;;10508818;28;20602;-72
2021/11/26 14:13:08;;;;;;;23.67;14.93;;;5.90;45.40;;;;;;10507167;28;20234;-75
2021/11/26 14:18:12;;;;;;;26.53;17.47;;;5.90;45.50;;;;;;10505107;28;20231;-71
2021/11/26 14:23:17;;;;;;;24.13;16.80;;;5.90;45.60;;;;;;10501325;28;20235;-76
2021/11/26 14:28:22;;;;;;;24.53;15.67;;;5.80;45.60;;;;;;10507528;28;20252;-75
2021/11/26 14:33:25;;;;;;;21.20;14.17;;;5.80;45.60;;;;;;10514435;28;20228;-71
2021/11/26 14:38:30;;;;;;;24.60;15.60;;;5.80;45.60;;;;;;10503463;28;20227;-77
2021/11/26 14:43:34;;;;;;;24.83;15.90;;;5.80;45.80;;;;;;10504591;28;20247;-71
2021/11/26 14:48:40;;;;;;;24.47;16.53;;;5.70;45.60;;;;;;10503866;28;20371;-74
2021/11/26 14:53:45;;;;;;;26.00;18.37;;;5.70;45.80;;;;;;10488090;28;20234;-75
2021/11/26 14:58:48;;;;;;;23.53;15.83;;;5.70;45.90;;;;;;10504534;28;20227;-77
2021/11/26 15:03:52;;;;;;;25.13;16.47;;;5.60;45.90;;;;;;10506960;28;20219;-76
2021/11/26 15:08:57;;;;;;;24.97;16.63;;;5.60;45.90;;;;;;10503699;28;20224;-71
2021/11/26 15:14:02;;;;;;;25.03;16.47;;;5.60;45.90;;;;;;10502740;28;20232;-76
2021/11/26 15:19:05;;;;;;;25.17;16.30;;;5.60;45.80;;;;;;10507797;28;20272;-70
2021/11/26 15:24:11;;;;;;;25.57;17.33;;;5.50;45.90;;;;;;10506020;28;20792;-73
2021/11/26 15:29:14;;;;;;;25.93;17.40;;;5.50;45.90;;;;;;10503937;28;20234;-71
2021/11/26 15:34:18;;;;;;;30.40;19.70;;;5.50;45.90;;;;;;10507879;28;20711;-71
2021/11/26 15:39:22;;;;;;;32.97;22.00;;;5.50;46.00;;;;;;10507101;28;20231;-71
2021/11/26 15:44:25;;;;;;;29.67;19.53;;;5.50;46.00;;;;;;10503445;28;20228;-71
2021/11/26 15:49:29;;;;;;;24.13;17.07;;;5.50;46.10;;;;;;10506869;28;20229;-74
2021/11/26 15:54:33;;;;;;;23.60;16.30;;;5.50;46.80;;;;;;10504432;28;20223;-71
2021/11/26 15:59:38;;;;;;;19.83;15.43;;;5.50;46.00;;;;;;10507882;28;20217;-71
2021/11/26 16:04:42;;;;;;;25.87;17.17;;;5.50;46.00;;;;;;10507526;28;20216;-71
2021/11/26 16:09:46;;;;;;;29.10;19.77;;;5.50;45.90;;;;;;10504695;28;20224;-71
2021/11/26 16:14:50;;;;;;;25.00;17.57;;;5.50;45.90;;;;;;10508768;28;20242;-73
2021/11/26 16:19:54;;;;;;;26.20;18.00;;;5.50;45.80;;;;;;10511938;28;20681;-76
2021/11/26 16:24:58;;;;;;;29.03;19.23;;;5.50;45.90;;;;;;10514852;28;20218;-76
2021/11/26 16:30:01;;;;;;;24.13;16.80;;;5.50;46.00;;;;;;10512630;28;20228;-70
2021/11/26 16:35:11;;;;;;;27.10;18.43;;;5.50;46.00;;;;;;10512898;28;20220;-71
2021/11/26 16:40:16;;;;;;;24.70;18.57;;;5.50;46.10;;;;;;10515528;28;20235;-73
2021/11/26 16:45:23;;;;;;;26.67;17.30;;;5.50;46.70;;;;;;10517206;28;20234;-73
2021/11/26 16:50:28;;;;;;;34.00;25.63;;;5.50;46.00;;;;;;10507321;28;20293;-73
2021/11/26 16:55:32;;;;;;;25.70;19.83;;;5.50;46.10;;;;;;10513439;28;20216;-70
2021/11/26 17:00:36;;;;;;;30.27;21.37;;;5.40;46.10;;;;;;10506700;28;20259;-74
2021/11/26 17:05:41;;;;;;;26.87;19.63;;;5.40;46.10;;;;;;10514446;28;20224;-76
2021/11/26 17:10:45;;;;;;;30.87;22.67;;;5.40;46.10;;;;;;10513586;28;20600;-73
2021/11/26 17:15:48;;;;;;;26.53;18.47;;;5.40;46.20;;;;;;10511763;28;20242;-73
2021/11/26 17:20:52;;;;;;;24.40;18.83;;;5.40;46.10;;;;;;10515923;28;20598;-71
2021/11/26 17:25:56;;;;;;;24.77;17.30;;;5.40;46.10;;;;;;10507681;28;20220;-73
2021/11/26 17:31:00;;;;;;;21.97;16.07;;;5.40;46.20;;;;;;10510762;28;20659;-76
2021/11/26 17:36:15;;;;;;;21.93;16.03;;;5.40;46.20;;;;;;10513165;28;20705;-73
2021/11/26 17:41:32;;;;;;;24.23;16.27;;;5.40;46.20;;;;;;10503962;28;20228;-76
2021/11/26 17:46:37;;;;;;;23.80;16.80;;;5.40;46.10;;;;;;10512263;28;20212;-73
2021/11/26 17:51:40;;;;;;;23.67;16.10;;;5.50;46.10;;;;;;10511139;28;20310;-73
2021/11/26 17:56:45;;;;;;;22.50;16.00;;;5.50;46.10;;;;;;10510278;28;20594;-71
2021/11/26 18:01:48;;;;;;;25.13;18.70;;;5.40;46.10;;;;;;10506813;28;20227;-70
2021/11/26 18:06:55;;;;;;;27.43;18.57;;;5.40;46.10;;;;;;10503951;28;20293;-70
2021/11/26 18:12:15;;;;;;;22.90;16.10;;;5.40;46.10;;;;;;10511338;28;20232;-75
2021/11/26 18:17:18;;;;;;;26.23;17.57;;;5.40;46.10;;;;;;10511455;28;20223;-73
2021/11/26 18:22:22;;;;;;;48.60;39.30;;;5.40;46.00;;;;;;10513111;28;20254;-75
2021/11/26 18:27:27;;;;;;;52.07;40.73;;;5.40;46.00;;;;;;10503926;28;20831;-75
2021/11/26 18:32:30;;;;;;;36.90;29.07;;;5.40;45.90;;;;;;10511407;28;20228;-70
2021/11/26 18:37:33;;;;;;;42.13;35.30;;;5.50;46.00;;;;;;10507465;28;20220;-70
2021/11/26 18:42:39;;;;;;;35.53;29.93;;;5.40;45.90;;;;;;10505697;28;20318;-73
2021/11/26 18:47:42;;;;;;;31.27;21.50;;;5.40;46.00;;;;;;10506057;28;20224;-70
2021/11/26 18:52:46;;;;;;;30.37;21.73;;;5.40;46.70;;;;;;10509536;28;20224;-75
2021/11/26 18:57:52;;;;;;;26.77;18.83;;;5.40;45.90;;;;;;10506990;28;20219;-71
2021/11/26 19:02:55;;;;;;;26.07;19.63;;;5.40;45.90;;;;;;10507484;28;20604;-76
2021/11/26 19:07:59;;;;;;;25.37;18.47;;;5.40;45.90;;;;;;10510387;28;20220;-73
2021/11/26 19:13:14;;;;;;;33.03;22.53;;;5.40;45.90;;;;;;10507886;28;22240;-70
2021/11/26 19:18:19;;;;;;;29.63;21.63;;;5.40;45.90;;;;;;10508515;28;20255;-70
2021/11/26 19:23:22;;;;;;;29.70;21.53;;;5.40;45.80;;;;;;10513535;28;20231;-70
2021/11/26 19:28:27;;;;;;;27.83;19.00;;;5.40;45.80;;;;;;10509258;28;20224;-71
2021/11/26 19:33:32;;;;;;;22.40;16.93;;;5.40;45.70;;;;;;10512997;28;20226;-71
2021/11/26 19:38:35;;;;;;;22.33;17.13;;;5.40;45.60;;;;;;10509648;28;20723;-75
2021/11/26 19:43:40;;;;;;;22.87;17.03;;;5.40;45.60;;;;;;10496837;28;20919;-75
2021/11/26 19:48:44;;;;;;;26.07;18.93;;;5.40;45.70;;;;;;10503006;28;20589;-70
2021/11/26 19:53:50;;;;;;;21.67;16.90;;;5.40;45.70;;;;;;10505875;28;20234;-70
2021/11/26 19:58:54;;;;;;;25.67;18.87;;;5.40;45.60;;;;;;10505892;28;20212;-70
2021/11/26 20:04:02;;;;;;;20.50;16.10;;;5.30;45.50;;;;;;10506431;28;20219;-69
2021/11/26 20:09:06;;;;;;;20.53;15.40;;;5.30;45.60;;;;;;10504700;28;20222;-74
2021/11/26 20:14:12;;;;;;;19.67;15.93;;;5.30;45.70;;;;;;10506589;28;20224;-70
2021/11/26 20:19:16;;;;;;;22.60;16.97;;;5.30;45.60;;;;;;10503992;28;20353;-71
2021/11/26 20:24:19;;;;;;;20.97;16.07;;;5.40;45.80;;;;;;10504859;28;20318;-71
2021/11/26 20:29:25;;;;;;;18.20;14.40;;;5.40;45.80;;;;;;10506326;28;20240;-71
2021/11/26 20:34:29;;;;;;;16.10;13.57;;;5.40;45.90;;;;;;10503908;28;20313;-71
2021/11/26 20:39:32;;;;;;;16.43;13.77;;;5.40;45.80;;;;;;10503743;28;20232;-71
2021/11/26 20:44:38;;;;;;;17.30;13.97;;;5.40;45.60;;;;;;10505239;28;20224;-71
2021/11/26 20:49:41;;;;;;;16.57;13.40;;;5.40;45.60;;;;;;10505383;28;20752;-71
2021/11/26 20:54:44;;;;;;;16.27;13.70;;;5.50;45.60;;;;;;10505933;28;20224;-75
2021/11/26 20:59:49;;;;;;;16.70;13.53;;;5.40;45.60;;;;;;10503169;28;20767;-75
2021/11/26 21:04:52;;;;;;;16.90;13.97;;;5.40;45.60;;;;;;10509079;28;20628;-75
2021/11/26 21:09:56;;;;;;;16.73;13.33;;;5.40;45.60;;;;;;10511809;28;20499;-76
2021/11/26 21:15:01;;;;;;;15.73;13.07;;;5.40;45.50;;;;;;10513425;28;20697;-75
2021/11/26 21:20:05;;;;;;;14.90;12.13;;;5.40;45.50;;;;;;10511180;28;20251;-75
2021/11/26 21:25:11;;;;;;;15.60;12.63;;;5.50;45.80;;;;;;10510727;28;20319;-75
2021/11/26 21:30:18;;;;;;;14.33;12.00;;;5.40;45.70;;;;;;10512884;28;20228;-75
2021/11/26 21:35:22;;;;;;;12.97;11.03;;;5.40;45.60;;;;;;10508616;28;20243;-70
2021/11/26 21:40:26;;;;;;;14.33;11.60;;;5.40;45.60;;;;;;10506454;28;20608;-71
2021/11/26 21:45:31;;;;;;;14.87;12.20;;;5.40;45.60;;;;;;10508005;28;20739;-71
2021/11/26 21:50:36;;;;;;;15.50;12.03;;;5.40;45.40;;;;;;10505981;28;20221;-76
2021/11/26 21:55:40;;;;;;;13.77;12.10;;;5.40;45.40;;;;;;10509240;28;20227;-77
2021/11/26 22:00:45;;;;;;;14.00;11.13;;;5.40;45.40;;;;;;10510910;28;20226;-76
2021/11/26 22:05:49;;;;;;;13.53;11.33;;;5.40;45.50;;;;;;10508851;28;20834;-72
2021/11/26 22:10:52;;;;;;;12.93;10.50;;;5.40;45.60;;;;;;10508332;28;20235;-72
2021/11/26 22:15:57;;;;;;;12.77;10.87;;;5.50;45.40;;;;;;10510242;28;20220;-77
2021/11/26 22:21:01;;;;;;;12.10;10.80;;;5.50;45.40;;;;;;10505859;28;20247;-76
2021/11/26 22:26:06;;;;;;;11.90;10.33;;;5.50;45.40;;;;;;10510180;28;20701;-76
2021/11/26 22:31:11;;;;;;;13.73;10.90;;;5.50;45.20;;;;;;10504495;28;20565;-76
2021/11/26 22:36:16;;;;;;;11.17;9.87;;;5.40;45.20;;;;;;10505599;28;20216;-72
2021/11/26 22:41:24;;;;;;;11.13;9.93;;;5.40;45.20;;;;;;10501933;28;20242;-77
2021/11/26 22:46:33;;;;;;;10.93;9.83;;;5.40;45.30;;;;;;10506558;28;20240;-77
2021/11/26 22:51:37;;;;;;;10.77;9.57;;;5.40;45.30;;;;;;10508221;28;20235;-71
2021/11/26 22:56:41;;;;;;;9.77;8.80;;;5.40;45.30;;;;;;10503421;28;20724;-72
2021/11/26 23:01:46;;;;;;;11.90;10.70;;;5.40;45.40;;;;;;10503061;28;20227;-72
2021/11/26 23:06:49;;;;;;;11.30;9.87;;;5.40;45.20;;;;;;10498784;28;20250;-71
2021/11/26 23:11:54;;;;;;;11.23;9.83;;;5.40;45.20;;;;;;10505166;28;20262;-71
2021/11/26 23:17:01;;;;;;;9.30;8.40;;;5.40;45.00;;;;;;10505721;28;20644;-77
2021/11/26 23:22:06;;;;;;;11.97;10.63;;;5.40;44.90;;;;;;10504151;28;20701;-76
2021/11/26 23:27:09;;;;;;;13.93;11.13;;;5.30;45.00;;;;;;10499240;28;20598;-72
2021/11/26 23:32:17;;;;;;;19.53;13.70;;;5.30;45.00;;;;;;10506625;28;20857;-72
2021/11/26 23:37:21;;;;;;;20.83;15.80;;;5.30;45.00;;;;;;10503276;28;20924;-71
2021/11/26 23:42:24;;;;;;;17.50;13.00;;;5.30;45.10;;;;;;10504889;28;20703;-71
2021/11/26 23:47:28;;;;;;;12.23;10.13;;;5.30;45.10;;;;;;10509351;28;20237;-77
2021/11/26 23:52:31;;;;;;;15.67;12.27;;;5.20;45.00;;;;;;10507350;28;20227;-78
2021/11/26 23:57:35;;;;;;;12.37;10.70;;;5.30;45.00;;;;;;10510745;28;20234;-72
